sensor_id;sensor_type;location;lat;lon;timestamp;P1;durP1;ratioP1;P2;durP2;ratioP2
48026;SDS011;50714;49.208;5.364;2023-12-04T00:04:59;10.77;;;9.02;;
48026;SDS011;50714;49.208;5.364;2023-12-04T00:14:59;11.15;;;8.35;;
48026;SDS011;50714;49.208;5.364;2023-12-04T00:24:59;10.02;;;8.38;;
48026;SDS011;50714;49.208;5.364;2023-12-04T00:35:00;11.77;;;9.65;;
48026;SDS011;50714;49.208;5.364;2023-12-04T00:45:01;10.32;;;8.35;;
48026;SDS011;50714;49.208;5.364;2023-12-04T00:55:02;9.98;;;8.23;;
48026;SDS011;50714;49.208;5.364;2023-12-04T01:05:02;10.73;;;7.78;;
48026;SDS011;50714;49.208;5.364;2023-12-04T01:15:03;11.18;;;7.80;;
48026;SDS011;50714;49.208;5.364;2023-12-04T01:25:04;9.33;;;7.57;;
48026;SDS011;50714;49.208;5.364;2023-12-04T01:35:05;9.68;;;7.63;;
48026;SDS011;50714;49.208;5.364;2023-12-04T01:45:06;9.38;;;7.85;;
48026;SDS011;50714;49.208;5.364;2023-12-04T01:55:07;7.95;;;6.88;;
48026;SDS011;50714;49.208;5.364;2023-12-04T02:05:10;10.93;;;8.88;;
48026;SDS011;50714;49.208;5.364;2023-12-04T02:15:11;9.80;;;8.52;;
48026;SDS011;50714;49.208;5.364;2023-12-04T02:25:11;10.35;;;8.90;;
48026;SDS011;50714;49.208;5.364;2023-12-04T02:35:12;8.93;;;7.50;;
48026;SDS011;50714;49.208;5.364;2023-12-04T02:45:15;10.25;;;8.43;;
48026;SDS011;50714;49.208;5.364;2023-12-04T02:55:15;10.60;;;8.60;;
48026;SDS011;50714;49.208;5.364;2023-12-04T03:05:16;12.02;;;9.82;;
48026;SDS011;50714;49.208;5.364;2023-12-04T03:15:16;11.63;;;9.63;;
48026;SDS011;50714;49.208;5.364;2023-12-04T03:25:16;11.40;;;9.80;;
48026;SDS011;50714;49.208;5.364;2023-12-04T03:35:17;10.73;;;9.63;;
48026;SDS011;50714;49.208;5.364;2023-12-04T03:45:17;9.07;;;7.65;;
48026;SDS011;50714;49.208;5.364;2023-12-04T03:55:17;8.02;;;7.22;;
48026;SDS011;50714;49.208;5.364;2023-12-04T04:05:19;7.85;;;6.95;;
48026;SDS011;50714;49.208;5.364;2023-12-04T04:15:19;8.20;;;6.57;;
48026;SDS011;50714;49.208;5.364;2023-12-04T04:25:20;8.20;;;7.05;;
48026;SDS011;50714;49.208;5.364;2023-12-04T04:35:22;8.15;;;6.70;;
48026;SDS011;50714;49.208;5.364;2023-12-04T04:45:22;7.88;;;6.47;;
48026;SDS011;50714;49.208;5.364;2023-12-04T04:55:23;7.38;;;6.38;;
48026;SDS011;50714;49.208;5.364;2023-12-04T05:05:23;7.53;;;6.18;;
48026;SDS011;50714;49.208;5.364;2023-12-04T05:15:23;11.43;;;8.65;;
48026;SDS011;50714;49.208;5.364;2023-12-04T05:25:24;9.15;;;7.55;;
48026;SDS011;50714;49.208;5.364;2023-12-04T05:35:24;11.05;;;8.50;;
48026;SDS011;50714;49.208;5.364;2023-12-04T05:45:25;10.55;;;7.70;;
48026;SDS011;50714;49.208;5.364;2023-12-04T05:55:25;8.13;;;6.07;;
48026;SDS011;50714;49.208;5.364;2023-12-04T06:05:25;7.70;;;6.40;;
48026;SDS011;50714;49.208;5.364;2023-12-04T06:15:26;7.25;;;6.28;;
48026;SDS011;50714;49.208;5.364;2023-12-04T06:25:26;6.72;;;5.43;;
48026;SDS011;50714;49.208;5.364;2023-12-04T06:35:27;8.75;;;6.45;;
48026;SDS011;50714;49.208;5.364;2023-12-04T06:45:27;10.50;;;8.90;;
48026;SDS011;50714;49.208;5.364;2023-12-04T06:55:28;16.87;;;14.47;;
48026;SDS011;50714;49.208;5.364;2023-12-04T07:05:28;9.13;;;7.80;;
48026;SDS011;50714;49.208;5.364;2023-12-04T07:15:28;8.05;;;6.88;;
48026;SDS011;50714;49.208;5.364;2023-12-04T07:25:29;7.07;;;5.78;;
48026;SDS011;50714;49.208;5.364;2023-12-04T07:35:29;8.23;;;6.55;;
48026;SDS011;50714;49.208;5.364;2023-12-04T07:45:29;7.43;;;5.90;;
48026;SDS011;50714;49.208;5.364;2023-12-04T07:55:30;6.95;;;5.97;;
48026;SDS011;50714;49.208;5.364;2023-12-04T08:05:30;9.38;;;6.55;;
48026;SDS011;50714;49.208;5.364;2023-12-04T08:15:31;8.70;;;6.40;;
48026;SDS011;50714;49.208;5.364;2023-12-04T08:25:32;8.18;;;6.28;;
48026;SDS011;50714;49.208;5.364;2023-12-04T08:35:32;8.63;;;6.13;;
48026;SDS011;50714;49.208;5.364;2023-12-04T08:45:32;7.90;;;5.97;;
48026;SDS011;50714;49.208;5.364;2023-12-04T08:55:33;6.47;;;5.32;;
48026;SDS011;50714;49.208;5.364;2023-12-04T09:05:33;7.30;;;4.78;;
48026;SDS011;50714;49.208;5.364;2023-12-04T09:15:34;6.32;;;5.05;;
48026;SDS011;50714;49.208;5.364;2023-12-04T09:25:35;7.18;;;5.53;;
48026;SDS011;50714;49.208;5.364;2023-12-04T09:35:36;6.72;;;5.25;;
48026;SDS011;50714;49.208;5.364;2023-12-04T09:45:36;6.88;;;5.70;;
48026;SDS011;50714;49.208;5.364;2023-12-04T09:55:39;6.70;;;5.25;;
48026;SDS011;50714;49.208;5.364;2023-12-04T10:05:42;8.13;;;6.45;;
48026;SDS011;50714;49.208;5.364;2023-12-04T10:15:47;8.32;;;7.05;;
48026;SDS011;50714;49.208;5.364;2023-12-04T10:25:49;5.93;;;4.97;;
48026;SDS011;50714;49.208;5.364;2023-12-04T10:35:50;6.50;;;5.82;;
48026;SDS011;50714;49.208;5.364;2023-12-04T10:45:51;7.18;;;5.80;;
48026;SDS011;50714;49.208;5.364;2023-12-04T10:55:52;6.45;;;5.57;;
48026;SDS011;50714;49.208;5.364;2023-12-04T11:06:00;10.20;;;7.00;;
48026;SDS011;50714;49.208;5.364;2023-12-04T11:16:02;12.80;;;9.18;;
48026;SDS011;50714;49.208;5.364;2023-12-04T11:26:20;10.30;;;7.80;;
48026;SDS011;50714;49.208;5.364;2023-12-04T11:36:22;8.38;;;7.30;;
48026;SDS011;50714;49.208;5.364;2023-12-04T11:46:24;7.82;;;6.47;;
48026;SDS011;50714;49.208;5.364;2023-12-04T11:56:25;8.32;;;6.93;;
48026;SDS011;50714;49.208;5.364;2023-12-04T12:06:25;8.50;;;7.38;;
48026;SDS011;50714;49.208;5.364;2023-12-04T12:16:26;13.02;;;9.82;;
48026;SDS011;50714;49.208;5.364;2023-12-04T12:26:26;9.77;;;7.78;;
48026;SDS011;50714;49.208;5.364;2023-12-04T12:36:28;8.63;;;6.63;;
48026;SDS011;50714;49.208;5.364;2023-12-04T12:46:29;6.22;;;5.32;;
48026;SDS011;50714;49.208;5.364;2023-12-04T12:56:30;7.10;;;5.60;;
48026;SDS011;50714;49.208;5.364;2023-12-04T13:06:31;9.80;;;8.55;;
48026;SDS011;50714;49.208;5.364;2023-12-04T13:16:31;8.18;;;7.38;;
48026;SDS011;50714;49.208;5.364;2023-12-04T13:26:31;7.50;;;6.80;;
48026;SDS011;50714;49.208;5.364;2023-12-04T13:36:33;8.15;;;6.13;;
48026;SDS011;50714;49.208;5.364;2023-12-04T13:46:34;6.07;;;5.28;;
48026;SDS011;50714;49.208;5.364;2023-12-04T13:56:34;5.45;;;4.55;;
48026;SDS011;50714;49.208;5.364;2023-12-04T14:06:53;5.75;;;4.53;;
48026;SDS011;50714;49.208;5.364;2023-12-04T14:16:54;5.03;;;3.88;;
48026;SDS011;50714;49.208;5.364;2023-12-04T14:26:55;5.13;;;3.90;;
48026;SDS011;50714;49.208;5.364;2023-12-04T14:36:55;5.28;;;4.00;;
48026;SDS011;50714;49.208;5.364;2023-12-04T14:46:55;4.75;;;3.67;;
48026;SDS011;50714;49.208;5.364;2023-12-04T14:56:55;6.07;;;4.32;;
48026;SDS011;50714;49.208;5.364;2023-12-04T15:07:14;5.75;;;4.03;;
48026;SDS011;50714;49.208;5.364;2023-12-04T15:17:20;5.40;;;3.95;;
48026;SDS011;50714;49.208;5.364;2023-12-04T15:27:33;4.65;;;3.08;;
48026;SDS011;50714;49.208;5.364;2023-12-04T15:37:34;4.90;;;3.72;;
48026;SDS011;50714;49.208;5.364;2023-12-04T15:47:34;4.13;;;3.30;;
48026;SDS011;50714;49.208;5.364;2023-12-04T15:57:34;7.10;;;5.18;;
48026;SDS011;50714;49.208;5.364;2023-12-04T16:07:35;5.05;;;3.60;;
48026;SDS011;50714;49.208;5.364;2023-12-04T16:17:35;5.20;;;4.10;;
48026;SDS011;50714;49.208;5.364;2023-12-04T16:27:36;3.60;;;2.97;;
48026;SDS011;50714;49.208;5.364;2023-12-04T16:37:38;5.03;;;3.38;;
48026;SDS011;50714;49.208;5.364;2023-12-04T16:47:40;5.45;;;3.35;;
48026;SDS011;50714;49.208;5.364;2023-12-04T16:57:40;13.52;;;10.35;;
48026;SDS011;50714;49.208;5.364;2023-12-04T17:07:41;7.40;;;5.43;;
48026;SDS011;50714;49.208;5.364;2023-12-04T17:17:41;7.53;;;5.70;;
48026;SDS011;50714;49.208;5.364;2023-12-04T17:27:41;6.05;;;4.18;;
48026;SDS011;50714;49.208;5.364;2023-12-04T17:37:42;9.15;;;6.80;;
48026;SDS011;50714;49.208;5.364;2023-12-04T17:47:42;7.43;;;5.68;;
48026;SDS011;50714;49.208;5.364;2023-12-04T17:57:43;5.53;;;4.20;;
48026;SDS011;50714;49.208;5.364;2023-12-04T18:07:44;6.93;;;5.25;;
48026;SDS011;50714;49.208;5.364;2023-12-04T18:17:44;6.60;;;5.68;;
48026;SDS011;50714;49.208;5.364;2023-12-04T18:27:45;7.05;;;5.47;;
48026;SDS011;50714;49.208;5.364;2023-12-04T18:37:55;4.80;;;3.97;;
48026;SDS011;50714;49.208;5.364;2023-12-04T18:48:05;3.40;;;2.72;;
48026;SDS011;50714;49.208;5.364;2023-12-04T18:58:08;4.70;;;3.63;;
48026;SDS011;50714;49.208;5.364;2023-12-04T19:08:14;2.63;;;1.98;;
48026;SDS011;50714;49.208;5.364;2023-12-04T19:18:14;1.98;;;1.77;;
48026;SDS011;50714;49.208;5.364;2023-12-04T19:28:15;3.08;;;2.72;;
48026;SDS011;50714;49.208;5.364;2023-12-04T19:38:15;3.83;;;2.70;;
48026;SDS011;50714;49.208;5.364;2023-12-04T19:48:19;5.80;;;4.30;;
48026;SDS011;50714;49.208;5.364;2023-12-04T19:58:20;7.63;;;6.03;;
48026;SDS011;50714;49.208;5.364;2023-12-04T20:08:20;8.32;;;6.45;;
48026;SDS011;50714;49.208;5.364;2023-12-04T20:18:20;7.22;;;6.18;;
48026;SDS011;50714;49.208;5.364;2023-12-04T20:28:21;12.05;;;5.57;;
48026;SDS011;50714;49.208;5.364;2023-12-04T20:38:23;12.85;;;9.02;;
48026;SDS011;50714;49.208;5.364;2023-12-04T20:48:25;8.23;;;6.13;;
48026;SDS011;50714;49.208;5.364;2023-12-04T20:58:25;5.45;;;3.58;;
48026;SDS011;50714;49.208;5.364;2023-12-04T21:08:25;4.82;;;2.50;;
48026;SDS011;50714;49.208;5.364;2023-12-04T21:18:26;2.90;;;2.10;;
48026;SDS011;50714;49.208;5.364;2023-12-04T21:28:26;2.20;;;2.00;;
48026;SDS011;50714;49.208;5.364;2023-12-04T21:38:26;2.35;;;2.15;;
48026;SDS011;50714;49.208;5.364;2023-12-04T21:48:26;3.13;;;2.00;;
48026;SDS011;50714;49.208;5.364;2023-12-04T21:58:27;2.75;;;1.70;;
48026;SDS011;50714;49.208;5.364;2023-12-04T22:08:28;3.65;;;2.30;;
48026;SDS011;50714;49.208;5.364;2023-12-04T22:18:29;2.88;;;1.95;;
48026;SDS011;50714;49.208;5.364;2023-12-04T22:28:32;2.40;;;1.80;;
48026;SDS011;50714;49.208;5.364;2023-12-04T22:38:33;4.35;;;2.92;;
48026;SDS011;50714;49.208;5.364;2023-12-04T22:48:33;8.95;;;5.22;;
48026;SDS011;50714;49.208;5.364;2023-12-04T22:58:35;16.95;;;9.75;;
48026;SDS011;50714;49.208;5.364;2023-12-04T23:08:35;11.18;;;5.85;;
48026;SDS011;50714;49.208;5.364;2023-12-04T23:18:36;9.32;;;5.45;;
48026;SDS011;50714;49.208;5.364;2023-12-04T23:28:36;9.10;;;5.78;;
48026;SDS011;50714;49.208;5.364;2023-12-04T23:38:36;11.48;;;7.78;;
48026;SDS011;50714;49.208;5.364;2023-12-04T23:48:37;11.25;;;7.05;;
48026;SDS011;50714;49.208;5.364;2023-12-04T23:58:39;6.72;;;4.45;;
